Time;durP1;ratioP1;P1;durP2;ratioP2;P2;SDS_P1;SDS_P2;PMS_P1;PMS_P2;Temp;Humidity;BMP_temperature;BMP_pressure;BME280_temperature;BME280_humidity;BME280_pressure;Samples;Min_cycle;Max_cycle;Signal;HPM_P1;HPM_P2
2021/12/19 00:04:54;;;;;;;5.30;3.65;;;;;;;;;;5042569;28;20024;-52
2021/12/19 00:10:04;;;;;;;5.57;3.80;;;;;;;;;;5040690;28;20077;-57
2021/12/19 00:12:29;;;;;;;6.32;4.00;;;;;;;;;;5039980;28;20658;-58
2021/12/19 00:14:55;;;;;;;6.20;4.05;;;;;;;;;;5042199;28;20422;-54
2021/12/19 00:17:20;;;;;;;4.57;3.72;;;;;;;;;;5040157;28;20883;-55
2021/12/19 00:19:45;;;;;;;5.20;3.80;;;;;;;;;;5043916;28;20377;-56
2021/12/19 00:22:11;;;;;;;6.32;3.90;;;;;;;;;;5022743;28;20028;-57
2021/12/19 00:24:36;;;;;;;5.53;3.72;;;;;;;;;;5040816;28;20445;-57
2021/12/19 00:27:02;;;;;;;4.50;3.60;;;;;;;;;;5040631;28;20495;-55
2021/12/19 00:29:27;;;;;;;5.78;3.85;;;;;;;;;;5039994;28;20056;-55
2021/12/19 00:31:53;;;;;;;6.20;3.63;;;;;;;;;;5042217;28;20036;-53
2021/12/19 00:34:18;;;;;;;5.30;3.67;;;;;;;;;;5021305;28;20033;-53
2021/12/19 00:36:44;;;;;;;5.72;3.85;;;;;;;;;;5040845;28;20009;-58
2021/12/19 00:39:10;;;;;;;5.75;3.88;;;;;;;;;;5042302;28;20474;-57
2021/12/19 00:41:35;;;;;;;5.85;3.88;;;;;;;;;;5040936;28;20032;-55
2021/12/19 00:44:09;;;;;;;6.10;4.10;;;;;;;;;;5043052;28;20048;-55
2021/12/19 00:46:43;;;;;;;5.45;3.92;;;;;;;;;;5041341;28;20055;-52
2021/12/19 00:49:11;;;;;;;6.68;4.30;;;;;;;;;;5041439;28;20050;-56
2021/12/19 00:51:37;;;;;;;5.13;3.83;;;;;;;;;;5040700;28;20033;-54
2021/12/19 00:54:04;;;;;;;7.25;3.85;;;;;;;;;;5043555;28;20029;-56
2021/12/19 00:56:30;;;;;;;6.72;4.22;;;;;;;;;;5041331;28;20054;-55
2021/12/19 00:58:55;;;;;;;6.85;4.07;;;;;;;;;;5041625;28;20032;-53
2021/12/19 01:01:21;;;;;;;6.20;3.75;;;;;;;;;;5043913;28;20052;-54
2021/12/19 01:03:47;;;;;;;6.35;4.05;;;;;;;;;;5041767;28;20086;-55
2021/12/19 01:06:17;;;;;;;6.32;3.90;;;;;;;;;;5039840;28;20037;-55
2021/12/19 01:08:42;;;;;;;5.80;3.70;;;;;;;;;;5035971;28;20041;-54
2021/12/19 01:11:07;;;;;;;6.00;3.80;;;;;;;;;;5038741;28;20036;-54
2021/12/19 01:13:33;;;;;;;5.40;3.70;;;;;;;;;;5036081;28;20041;-56
2021/12/19 01:16:01;;;;;;;7.10;3.88;;;;;;;;;;5037877;28;20372;-54
2021/12/19 01:18:26;;;;;;;5.32;3.83;;;;;;;;;;5037150;28;20037;-56
2021/12/19 01:20:52;;;;;;;5.40;3.67;;;;;;;;;;5039622;28;20025;-57
2021/12/19 01:23:17;;;;;;;5.55;3.83;;;;;;;;;;5039660;28;20511;-53
2021/12/19 01:25:43;;;;;;;4.40;3.35;;;;;;;;;;5036468;28;20116;-53
2021/12/19 01:28:09;;;;;;;4.15;2.85;;;;;;;;;;5040361;28;20041;-58
2021/12/19 01:30:35;;;;;;;3.85;2.80;;;;;;;;;;5037190;28;20514;-56
2021/12/19 01:33:01;;;;;;;3.25;2.45;;;;;;;;;;5037952;28;20091;-55
2021/12/19 01:35:27;;;;;;;2.42;2.05;;;;;;;;;;5042047;28;20174;-54
2021/12/19 01:37:53;;;;;;;2.90;2.30;;;;;;;;;;5042086;28;20024;-55
2021/12/19 01:40:19;;;;;;;3.17;2.30;;;;;;;;;;5040468;28;20043;-56
2021/12/19 01:42:49;;;;;;;4.50;2.50;;;;;;;;;;5040163;28;20473;-53
2021/12/19 01:45:22;;;;;;;4.15;2.63;;;;;;;;;;5044617;28;20342;-55
2021/12/19 01:47:49;;;;;;;4.57;2.42;;;;;;;;;;5046442;28;20138;-57
2021/12/19 01:50:14;;;;;;;2.80;2.25;;;;;;;;;;5044291;28;20052;-56
2021/12/19 01:52:40;;;;;;;3.35;2.50;;;;;;;;;;5045262;28;20032;-55
2021/12/19 01:55:06;;;;;;;3.40;2.85;;;;;;;;;;5044841;28;20041;-56
2021/12/19 01:57:34;;;;;;;3.92;2.80;;;;;;;;;;5044204;28;20025;-59
2021/12/19 01:59:59;;;;;;;3.53;2.75;;;;;;;;;;5046026;28;20094;-54
2021/12/19 02:02:25;;;;;;;4.05;2.88;;;;;;;;;;5045712;28;20457;-55
2021/12/19 02:04:50;;;;;;;4.10;2.88;;;;;;;;;;5044885;28;20357;-58
2021/12/19 02:07:16;;;;;;;3.88;3.03;;;;;;;;;;5045598;28;20039;-56
2021/12/19 02:09:42;;;;;;;3.50;2.95;;;;;;;;;;5044805;28;20035;-56
2021/12/19 02:12:08;;;;;;;3.92;3.03;;;;;;;;;;5045024;28;20040;-54
2021/12/19 02:14:34;;;;;;;4.47;3.53;;;;;;;;;;5044032;28;20059;-53
2021/12/19 02:16:59;;;;;;;5.75;3.63;;;;;;;;;;5045601;28;20036;-57
2021/12/19 02:19:25;;;;;;;5.53;3.10;;;;;;;;;;5045837;28;20040;-57
2021/12/19 02:21:51;;;;;;;3.70;2.97;;;;;;;;;;5046110;28;20025;-56
2021/12/19 02:24:17;;;;;;;4.35;3.45;;;;;;;;;;5045155;28;20457;-56
2021/12/19 02:26:43;;;;;;;5.50;4.10;;;;;;;;;;5044840;28;20037;-54
2021/12/19 02:29:10;;;;;;;4.32;3.35;;;;;;;;;;5044908;28;20021;-56
2021/12/19 02:31:36;;;;;;;3.33;2.92;;;;;;;;;;5026086;28;20449;-55
2021/12/19 02:34:08;;;;;;;3.72;2.75;;;;;;;;;;5044843;28;20155;-55
2021/12/19 02:36:48;;;;;;;3.10;2.38;;;;;;;;;;5045861;28;20098;-55
2021/12/19 02:50:01;;;;;;;3.92;3.20;;;;;;;;;;5044863;28;20039;-55
2021/12/19 02:52:27;;;;;;;3.80;3.03;;;;;;;;;;5044099;28;20024;-55
2021/12/19 02:54:52;;;;;;;4.30;2.85;;;;;;;;;;5029522;28;20043;-52
2021/12/19 02:57:18;;;;;;;4.43;3.20;;;;;;;;;;5044005;28;20148;-52
2021/12/19 02:59:43;;;;;;;4.65;3.40;;;;;;;;;;5045702;28;20489;-56
2021/12/19 03:02:09;;;;;;;4.90;3.35;;;;;;;;;;5044834;28;20358;-56
2021/12/19 03:04:34;;;;;;;5.90;3.90;;;;;;;;;;5044612;28;20127;-57
2021/12/19 03:06:59;;;;;;;6.72;4.43;;;;;;;;;;5045285;28;20132;-54
2021/12/19 03:09:57;;;;;;;5.32;4.13;;;;;;;;;;5044769;28;20025;-54
2021/12/19 03:12:33;;;;;;;4.97;3.70;;;;;;;;;;5043246;28;20500;-57
2021/12/19 03:17:59;;;;;;;5.53;4.05;;;;;;;;;;5043062;28;20040;-56
2021/12/19 03:20:29;;;;;;;6.95;4.38;;;;;;;;;;5045372;28;20028;-55
2021/12/19 03:22:55;;;;;;;6.35;4.78;;;;;;;;;;5039848;28;20071;-56
2021/12/19 03:25:21;;;;;;;6.15;4.78;;;;;;;;;;5044965;28;20072;-56
2021/12/19 03:27:48;;;;;;;8.40;5.05;;;;;;;;;;5044807;28;20029;-55
2021/12/19 03:30:13;;;;;;;7.72;5.22;;;;;;;;;;5023676;28;20046;-54
2021/12/19 03:32:38;;;;;;;6.40;4.85;;;;;;;;;;5042456;28;20475;-57
2021/12/19 03:35:05;;;;;;;7.35;4.88;;;;;;;;;;5041476;28;20028;-54
2021/12/19 03:37:33;;;;;;;7.05;4.75;;;;;;;;;;5042558;28;20086;-55
2021/12/19 03:40:09;;;;;;;8.95;5.38;;;;;;;;;;5039586;28;20057;-53
2021/12/19 03:42:43;;;;;;;7.60;5.43;;;;;;;;;;5042939;28;20035;-50
2021/12/19 03:45:13;;;;;;;7.20;5.50;;;;;;;;;;5041024;28;20465;-54
2021/12/19 03:47:39;;;;;;;7.60;4.65;;;;;;;;;;5041425;28;20025;-52
2021/12/19 03:50:06;;;;;;;6.55;4.97;;;;;;;;;;5040955;28;20039;-52
2021/12/19 03:52:32;;;;;;;6.47;4.55;;;;;;;;;;5043031;28;20028;-52
2021/12/19 03:54:58;;;;;;;6.75;4.82;;;;;;;;;;5041643;28;20362;-52
2021/12/19 03:57:23;;;;;;;7.15;5.07;;;;;;;;;;5041858;28;20031;-56
2021/12/19 03:59:49;;;;;;;6.32;4.53;;;;;;;;;;5041731;28;20377;-52
2021/12/19 04:02:25;;;;;;;7.43;4.72;;;;;;;;;;5039900;28;20037;-53
2021/12/19 04:04:51;;;;;;;7.53;5.40;;;;;;;;;;5041298;28;20390;-53
2021/12/19 04:07:16;;;;;;;8.05;5.32;;;;;;;;;;5042424;28;20524;-52
2021/12/19 04:09:42;;;;;;;6.95;4.43;;;;;;;;;;5042637;28;20025;-53
2021/12/19 04:12:08;;;;;;;6.10;4.43;;;;;;;;;;5041392;28;20041;-53
2021/12/19 04:14:34;;;;;;;7.88;4.97;;;;;;;;;;5042361;28;20114;-56
2021/12/19 04:16:59;;;;;;;7.07;4.78;;;;;;;;;;5023849;28;20029;-55
2021/12/19 04:19:26;;;;;;;6.25;4.47;;;;;;;;;;5040340;28;20025;-53
2021/12/19 04:21:51;;;;;;;8.18;5.10;;;;;;;;;;5043421;28;20036;-56
2021/12/19 04:24:17;;;;;;;7.70;4.85;;;;;;;;;;5040418;28;20477;-54
2021/12/19 04:26:42;;;;;;;7.10;4.85;;;;;;;;;;5039874;28;20029;-52
2021/12/19 04:29:08;;;;;;;6.43;4.60;;;;;;;;;;5039458;28;20032;-51
2021/12/19 04:31:33;;;;;;;7.00;4.97;;;;;;;;;;5039897;28;20040;-51
2021/12/19 04:33:59;;;;;;;6.03;4.65;;;;;;;;;;5041379;28;20032;-53
2021/12/19 04:36:31;;;;;;;7.20;4.90;;;;;;;;;;5042209;28;21202;-53
2021/12/19 04:57:57;;;;;;;7.28;4.30;;;;;;;;;;4997613;28;20030;-55
2021/12/19 05:00:34;;;;;;;7.57;4.70;;;;;;;;;;5000258;28;20029;-52
2021/12/19 05:03:27;;;;;;;5.22;3.95;;;;;;;;;;5027372;28;20056;-57
2021/12/19 05:14:09;;;;;;;7.00;4.63;;;;;;;;;;5041254;28;20024;-56
2021/12/19 05:16:38;;;;;;;7.50;4.80;;;;;;;;;;5040005;28;20032;-55
2021/12/19 05:19:19;;;;;;;7.13;4.60;;;;;;;;;;5041666;28;20028;-56
2021/12/19 05:21:44;;;;;;;7.30;4.63;;;;;;;;;;5041673;28;20025;-51
2021/12/19 05:24:45;;;;;;;7.65;4.95;;;;;;;;;;5023051;28;20047;-51
2021/12/19 05:27:05;;;;;;;7.75;4.70;;;;;;;;;;5040353;28;20118;-53
2021/12/19 05:29:32;;;;;;;7.07;4.90;;;;;;;;;;5042301;28;20044;-56
2021/12/19 05:31:57;;;;;;;8.23;4.80;;;;;;;;;;5040560;28;20033;-51
2021/12/19 05:34:23;;;;;;;7.65;5.70;;;;;;;;;;5041890;28;20025;-51
2021/12/19 05:47:36;;;;;;;9.90;5.60;;;;;;;;;;5038954;28;20056;-53
2021/12/19 05:50:06;;;;;;;7.90;5.03;;;;;;;;;;5040101;28;20508;-57
2021/12/19 05:52:31;;;;;;;8.45;6.15;;;;;;;;;;5040868;28;20045;-56
2021/12/19 05:54:57;;;;;;;7.80;5.03;;;;;;;;;;5025178;28;20033;-56
2021/12/19 05:57:22;;;;;;;6.80;4.93;;;;;;;;;;5042574;28;20111;-53
2021/12/19 05:59:48;;;;;;;9.18;5.25;;;;;;;;;;5039985;28;20508;-53
2021/12/19 06:02:14;;;;;;;8.52;5.57;;;;;;;;;;5040887;28;21273;-53
2021/12/19 06:04:39;;;;;;;9.93;6.13;;;;;;;;;;5041696;28;20025;-53
2021/12/19 06:07:04;;;;;;;10.35;6.20;;;;;;;;;;5040289;28;20064;-52
2021/12/19 06:09:30;;;;;;;11.30;5.85;;;;;;;;;;5042214;28;20181;-55
2021/12/19 06:11:55;;;;;;;10.55;6.15;;;;;;;;;;5039890;28;20174;-56
2021/12/19 06:14:22;;;;;;;10.35;6.13;;;;;;;;;;5042787;28;20037;-57
2021/12/19 06:16:47;;;;;;;8.77;5.68;;;;;;;;;;5041393;28;21103;-52
2021/12/19 06:19:13;;;;;;;10.13;6.30;;;;;;;;;;5042674;28;20044;-57
2021/12/19 06:21:38;;;;;;;9.32;6.07;;;;;;;;;;5043021;28;20064;-55
2021/12/19 06:24:04;;;;;;;10.88;6.57;;;;;;;;;;5044213;28;20037;-57
2021/12/19 06:26:32;;;;;;;11.45;7.10;;;;;;;;;;5045440;28;20094;-52
2021/12/19 06:28:57;;;;;;;13.23;6.95;;;;;;;;;;5045010;28;20073;-52
2021/12/19 06:31:23;;;;;;;11.70;7.10;;;;;;;;;;5045929;28;20020;-54
2021/12/19 06:33:48;;;;;;;12.50;6.75;;;;;;;;;;5043947;28;20028;-53
2021/12/19 06:36:13;;;;;;;11.25;7.03;;;;;;;;;;5045126;28;20499;-53
2021/12/19 06:38:39;;;;;;;11.70;6.82;;;;;;;;;;5046160;28;20200;-55
2021/12/19 06:41:05;;;;;;;12.75;7.00;;;;;;;;;;5044848;28;20036;-57
2021/12/19 06:43:32;;;;;;;17.02;7.63;;;;;;;;;;5042260;28;20025;-57
2021/12/19 06:45:58;;;;;;;11.88;7.22;;;;;;;;;;5043981;28;20670;-55
2021/12/19 06:48:24;;;;;;;13.27;7.60;;;;;;;;;;5045631;28;20044;-57
2021/12/19 06:50:51;;;;;;;13.18;7.60;;;;;;;;;;5044046;28;20041;-57
2021/12/19 06:53:16;;;;;;;15.68;8.27;;;;;;;;;;5043662;28;20033;-51
2021/12/19 06:55:42;;;;;;;13.45;8.02;;;;;;;;;;5044297;28;20083;-58
2021/12/19 06:58:07;;;;;;;13.93;8.15;;;;;;;;;;5042515;28;20043;-57
2021/12/19 07:00:33;;;;;;;14.70;7.50;;;;;;;;;;5041104;28;20098;-55
2021/12/19 07:02:58;;;;;;;15.85;8.23;;;;;;;;;;5044706;28;20029;-54
2021/12/19 07:05:24;;;;;;;16.83;8.55;;;;;;;;;;5043479;28;20036;-52
2021/12/19 07:07:49;;;;;;;12.57;7.15;;;;;;;;;;5044619;28;21267;-56
2021/12/19 07:10:15;;;;;;;13.88;7.88;;;;;;;;;;5044341;28;20048;-56
2021/12/19 07:12:40;;;;;;;14.73;8.38;;;;;;;;;;5043454;28;20373;-54
2021/12/19 07:15:06;;;;;;;13.85;8.07;;;;;;;;;;5043471;28;20094;-54
2021/12/19 07:17:32;;;;;;;15.70;8.50;;;;;;;;;;5044502;28;20134;-58
2021/12/19 07:19:57;;;;;;;16.35;8.35;;;;;;;;;;5043429;28;20560;-53
2021/12/19 07:22:23;;;;;;;15.70;8.40;;;;;;;;;;5042218;28;20041;-54
2021/12/19 07:24:49;;;;;;;15.52;8.05;;;;;;;;;;5042667;28;20033;-56
2021/12/19 07:27:14;;;;;;;16.67;8.13;;;;;;;;;;5028954;28;20037;-57
2021/12/19 07:29:41;;;;;;;15.48;7.25;;;;;;;;;;5043052;28;20033;-55
2021/12/19 07:32:07;;;;;;;14.85;7.22;;;;;;;;;;5042748;28;20029;-52
2021/12/19 07:34:35;;;;;;;15.93;8.32;;;;;;;;;;5044055;28;20121;-55
2021/12/19 07:37:01;;;;;;;15.23;8.45;;;;;;;;;;5043379;28;20048;-54
2021/12/19 07:42:00;;;;;;;13.45;7.63;;;;;;;;;;5043388;28;20029;-53
2021/12/19 07:44:26;;;;;;;13.20;7.85;;;;;;;;;;5042423;28;20461;-53
2021/12/19 07:46:51;;;;;;;15.60;7.90;;;;;;;;;;5043197;28;20090;-54
2021/12/19 07:49:16;;;;;;;14.38;8.15;;;;;;;;;;5042365;28;20473;-56
2021/12/19 07:51:42;;;;;;;17.50;8.07;;;;;;;;;;5043546;28;20094;-54
2021/12/19 07:54:07;;;;;;;16.98;8.32;;;;;;;;;;5042916;28;20044;-57
2021/12/19 07:56:33;;;;;;;15.93;8.05;;;;;;;;;;5041349;28;20747;-53
2021/12/19 07:58:59;;;;;;;15.93;8.30;;;;;;;;;;5043775;28;20396;-54
2021/12/19 08:01:24;;;;;;;16.05;7.90;;;;;;;;;;5042591;28;20017;-57
2021/12/19 08:03:49;;;;;;;16.00;8.07;;;;;;;;;;5041805;28;20037;-57
2021/12/19 08:06:15;;;;;;;15.95;8.00;;;;;;;;;;5042827;28;20453;-55
2021/12/19 08:08:46;;;;;;;15.95;8.57;;;;;;;;;;5041394;28;20030;-55
2021/12/19 08:13:56;;;;;;;17.30;9.43;;;;;;;;;;5044319;28;20120;-56
2021/12/19 08:16:21;;;;;;;15.90;8.70;;;;;;;;;;5042872;28;20143;-54
2021/12/19 08:18:46;;;;;;;17.17;9.27;;;;;;;;;;5039681;28;20107;-52
2021/12/19 08:21:12;;;;;;;15.75;9.10;;;;;;;;;;5041366;28;20024;-56
2021/12/19 08:23:37;;;;;;;17.95;9.63;;;;;;;;;;5043536;28;20027;-56
2021/12/19 08:26:03;;;;;;;17.27;9.57;;;;;;;;;;5041937;28;20063;-57
2021/12/19 08:28:28;;;;;;;20.52;9.25;;;;;;;;;;5042838;28;20032;-52
2021/12/19 08:30:54;;;;;;;19.30;9.48;;;;;;;;;;5041567;28;20035;-56
2021/12/19 08:33:19;;;;;;;13.38;7.35;;;;;;;;;;5043547;28;20028;-54
2021/12/19 08:35:45;;;;;;;14.82;8.00;;;;;;;;;;5041824;28;20032;-55
2021/12/19 08:38:11;;;;;;;13.35;7.80;;;;;;;;;;5041742;28;20049;-57
2021/12/19 08:40:37;;;;;;;16.60;8.50;;;;;;;;;;5043021;28;20052;-56
2021/12/19 08:43:05;;;;;;;14.43;8.35;;;;;;;;;;5039837;28;20087;-56
2021/12/19 08:45:30;;;;;;;13.45;7.60;;;;;;;;;;5043703;28;20025;-54
2021/12/19 08:47:56;;;;;;;12.52;7.30;;;;;;;;;;5025844;28;20083;-57
2021/12/19 08:50:23;;;;;;;13.57;8.02;;;;;;;;;;5042009;28;20032;-52
2021/12/19 08:52:48;;;;;;;15.15;8.38;;;;;;;;;;5042993;28;20036;-56
2021/12/19 08:55:14;;;;;;;17.80;8.65;;;;;;;;;;5042577;28;20029;-57
2021/12/19 08:57:39;;;;;;;15.23;7.97;;;;;;;;;;5040806;28;20848;-55
2021/12/19 09:00:13;;;;;;;15.98;8.55;;;;;;;;;;5040600;28;20087;-56
2021/12/19 09:02:44;;;;;;;13.98;8.05;;;;;;;;;;5043965;28;20039;-52
2021/12/19 09:05:10;;;;;;;13.48;7.72;;;;;;;;;;5041444;28;20063;-54
2021/12/19 09:07:36;;;;;;;13.52;7.50;;;;;;;;;;5040711;28;20368;-53
2021/12/19 09:10:05;;;;;;;12.82;7.40;;;;;;;;;;5022825;28;20530;-54
2021/12/19 09:12:30;;;;;;;14.00;7.78;;;;;;;;;;5041743;28;20059;-54
2021/12/19 09:14:55;;;;;;;12.82;7.93;;;;;;;;;;5042142;28;20040;-57
2021/12/19 09:17:21;;;;;;;14.35;7.90;;;;;;;;;;5041699;28;20025;-55
2021/12/19 09:19:46;;;;;;;13.63;7.55;;;;;;;;;;5042526;28;20078;-57
2021/12/19 09:22:12;;;;;;;12.38;7.88;;;;;;;;;;5040629;28;20029;-56
2021/12/19 09:24:37;;;;;;;14.20;7.93;;;;;;;;;;5041298;28;20056;-55
2021/12/19 09:27:03;;;;;;;12.88;7.40;;;;;;;;;;5041207;28;20127;-55
2021/12/19 09:29:30;;;;;;;13.90;7.90;;;;;;;;;;5041764;28;20025;-53
2021/12/19 09:31:56;;;;;;;12.25;7.18;;;;;;;;;;5040738;28;20091;-54
2021/12/19 09:34:23;;;;;;;14.13;8.27;;;;;;;;;;5023007;28;20030;-51
2021/12/19 09:36:48;;;;;;;11.35;7.43;;;;;;;;;;5040743;28;20073;-53
2021/12/19 09:39:14;;;;;;;13.05;8.02;;;;;;;;;;5039908;28;20052;-51
2021/12/19 09:41:44;;;;;;;12.13;7.57;;;;;;;;;;5040859;28;20028;-55
2021/12/19 09:44:11;;;;;;;12.95;7.85;;;;;;;;;;5040470;28;20039;-55
2021/12/19 09:46:39;;;;;;;12.48;7.68;;;;;;;;;;5040885;28;20037;-56
2021/12/19 09:49:06;;;;;;;12.30;7.85;;;;;;;;;;5039329;28;20039;-57
2021/12/19 09:51:31;;;;;;;13.15;7.50;;;;;;;;;;5040299;28;20049;-51
2021/12/19 09:53:56;;;;;;;14.68;8.57;;;;;;;;;;5040923;28;20126;-57
2021/12/19 09:56:22;;;;;;;12.02;7.43;;;;;;;;;;5043931;28;20020;-52
2021/12/19 09:58:50;;;;;;;14.93;8.70;;;;;;;;;;5046687;28;20064;-52
2021/12/19 10:01:15;;;;;;;15.15;8.05;;;;;;;;;;5043995;28;20142;-53
2021/12/19 10:03:40;;;;;;;11.57;7.63;;;;;;;;;;5043883;28;20120;-57
2021/12/19 10:06:18;;;;;;;13.55;8.18;;;;;;;;;;5046067;28;20036;-53
2021/12/19 10:08:46;;;;;;;12.98;7.30;;;;;;;;;;5043894;28;20025;-51
2021/12/19 10:11:58;;;;;;;13.20;7.97;;;;;;;;;;5045067;28;20028;-56
2021/12/19 10:14:35;;;;;;;13.80;8.02;;;;;;;;;;5034668;28;20183;-52
2021/12/19 10:17:04;;;;;;;13.57;7.20;;;;;;;;;;5043507;28;20108;-54
2021/12/19 10:19:42;;;;;;;15.10;8.43;;;;;;;;;;5044417;28;20032;-58
2021/12/19 10:22:23;;;;;;;12.35;7.68;;;;;;;;;;5043751;28;20539;-58
2021/12/19 10:24:49;;;;;;;13.63;7.57;;;;;;;;;;5045893;28;20035;-54
2021/12/19 10:27:37;;;;;;;14.18;8.15;;;;;;;;;;5043966;28;20037;-54
2021/12/19 10:30:25;;;;;;;13.30;8.32;;;;;;;;;;5045961;28;20574;-55
2021/12/19 10:32:52;;;;;;;12.75;8.43;;;;;;;;;;5044912;28;20029;-56
2021/12/19 10:35:41;;;;;;;12.93;8.00;;;;;;;;;;5026557;28;21038;-56
2021/12/19 10:38:20;;;;;;;12.25;7.82;;;;;;;;;;5044178;28;20040;-53
2021/12/19 10:40:54;;;;;;;11.40;7.32;;;;;;;;;;5043187;28;20396;-52
2021/12/19 10:43:21;;;;;;;12.43;7.55;;;;;;;;;;5044131;28;20028;-54
2021/12/19 10:45:54;;;;;;;12.43;7.63;;;;;;;;;;5043017;28;20072;-54
2021/12/19 10:48:30;;;;;;;13.75;8.20;;;;;;;;;;5025047;28;20514;-58
2021/12/19 10:50:59;;;;;;;12.48;7.78;;;;;;;;;;5043178;28;20029;-58
2021/12/19 10:53:29;;;;;;;12.30;7.18;;;;;;;;;;5041679;28;20059;-54
2021/12/19 10:55:56;;;;;;;10.82;7.20;;;;;;;;;;5043727;28;20040;-56
2021/12/19 10:58:33;;;;;;;12.23;7.57;;;;;;;;;;5041111;28;20036;-56
2021/12/19 11:01:04;;;;;;;14.25;7.55;;;;;;;;;;5043376;28;20036;-55
2021/12/19 11:03:46;;;;;;;13.60;7.57;;;;;;;;;;5041756;28;20480;-55
2021/12/19 11:06:23;;;;;;;13.57;7.45;;;;;;;;;;5044547;28;20111;-56
2021/12/19 11:08:51;;;;;;;13.48;7.70;;;;;;;;;;5044255;28;20047;-53
2021/12/19 11:11:33;;;;;;;11.98;7.28;;;;;;;;;;5044381;28;20033;-54
2021/12/19 11:13:59;;;;;;;13.57;7.78;;;;;;;;;;5024679;28;20020;-52
2021/12/19 11:16:25;;;;;;;14.50;8.07;;;;;;;;;;5046168;28;20033;-55
2021/12/19 11:18:51;;;;;;;13.23;8.00;;;;;;;;;;5044753;28;20029;-56
2021/12/19 11:21:18;;;;;;;13.30;7.78;;;;;;;;;;5044405;28;20043;-53
2021/12/19 11:23:44;;;;;;;13.82;7.85;;;;;;;;;;5043296;28;20380;-56
2021/12/19 11:26:10;;;;;;;13.23;7.47;;;;;;;;;;5044236;28;20029;-51
2021/12/19 11:28:36;;;;;;;13.85;7.75;;;;;;;;;;5043881;28;20038;-54
2021/12/19 11:31:02;;;;;;;12.10;7.13;;;;;;;;;;5044402;28;20036;-52
2021/12/19 11:33:36;;;;;;;14.93;7.97;;;;;;;;;;5042437;28;20570;-55
2021/12/19 11:36:02;;;;;;;13.50;7.55;;;;;;;;;;5025914;28;20035;-54
2021/12/19 11:38:29;;;;;;;11.50;6.88;;;;;;;;;;5044275;28;20037;-55
2021/12/19 11:40:54;;;;;;;13.90;7.68;;;;;;;;;;5043663;28;20060;-54
2021/12/19 11:43:20;;;;;;;12.15;7.60;;;;;;;;;;5043468;28;20075;-51
2021/12/19 11:45:57;;;;;;;12.75;8.18;;;;;;;;;;5044667;28;20104;-56
2021/12/19 11:48:34;;;;;;;15.30;8.43;;;;;;;;;;5043426;28;20198;-53
2021/12/19 11:51:02;;;;;;;12.43;7.60;;;;;;;;;;5042908;28;20028;-54
2021/12/19 11:53:32;;;;;;;14.68;7.85;;;;;;;;;;5043462;28;20104;-53
2021/12/19 11:56:18;;;;;;;14.85;7.57;;;;;;;;;;5042649;28;20420;-55
2021/12/19 11:58:45;;;;;;;14.43;7.90;;;;;;;;;;5043186;28;20058;-56
2021/12/19 12:01:20;;;;;;;13.93;8.23;;;;;;;;;;5025439;28;20116;-55
2021/12/19 12:04:21;;;;;;;13.95;7.28;;;;;;;;;;5042121;28;20036;-53
2021/12/19 12:06:57;;;;;;;14.63;8.45;;;;;;;;;;5039761;28;20045;-52
2021/12/19 12:09:32;;;;;;;14.82;8.50;;;;;;;;;;5042990;28;20777;-56
2021/12/19 12:12:04;;;;;;;15.30;8.13;;;;;;;;;;5042714;28;20036;-54
2021/12/19 12:14:37;;;;;;;14.43;8.88;;;;;;;;;;5041882;28;20587;-55
2021/12/19 12:17:11;;;;;;;14.13;8.40;;;;;;;;;;5042874;28;20020;-55
2021/12/19 12:19:48;;;;;;;16.30;8.13;;;;;;;;;;5043199;28;20094;-54
2021/12/19 12:22:37;;;;;;;13.23;7.53;;;;;;;;;;5022994;28;20061;-56
2021/12/19 12:25:04;;;;;;;12.32;7.78;;;;;;;;;;5041720;28;20020;-58
2021/12/19 12:27:40;;;;;;;13.00;7.68;;;;;;;;;;5043232;28;20033;-54
2021/12/19 12:30:08;;;;;;;13.48;7.55;;;;;;;;;;5044117;28;20064;-57
2021/12/19 12:32:34;;;;;;;13.07;8.18;;;;;;;;;;5043037;28;20119;-55
2021/12/19 12:34:59;;;;;;;12.95;7.70;;;;;;;;;;5041738;28;20561;-54
2021/12/19 12:37:27;;;;;;;12.65;8.05;;;;;;;;;;5042713;28;20037;-53
2021/12/19 12:40:17;;;;;;;12.50;7.57;;;;;;;;;;5043071;28;21542;-56
2021/12/19 12:43:23;;;;;;;14.25;7.82;;;;;;;;;;5043045;28;20052;-51
2021/12/19 12:45:54;;;;;;;14.77;7.80;;;;;;;;;;4959288;28;20066;-57
2021/12/19 12:48:50;;;;;;;12.10;7.45;;;;;;;;;;4958006;28;20149;-57
2021/12/19 12:51:24;;;;;;;16.73;8.05;;;;;;;;;;5019347;28;20097;-52
2021/12/19 12:53:53;;;;;;;13.75;7.95;;;;;;;;;;5043073;28;20323;-57
2021/12/19 12:56:29;;;;;;;11.73;7.75;;;;;;;;;;5042410;28;20029;-56
2021/12/19 12:58:56;;;;;;;15.38;8.27;;;;;;;;;;5042429;28;20056;-53
2021/12/19 13:01:24;;;;;;;12.65;7.45;;;;;;;;;;5043246;28;20540;-51
2021/12/19 13:03:54;;;;;;;13.45;7.70;;;;;;;;;;5042947;28;20116;-53
2021/12/19 13:06:38;;;;;;;15.40;7.88;;;;;;;;;;5043886;28;20029;-57
2021/12/19 13:09:13;;;;;;;13.38;7.38;;;;;;;;;;5041833;28;20033;-57
2021/12/19 13:11:39;;;;;;;10.05;6.93;;;;;;;;;;5040809;28;20059;-51
2021/12/19 13:14:11;;;;;;;14.05;7.85;;;;;;;;;;5040740;28;20032;-55
2021/12/19 13:17:08;;;;;;;13.32;7.40;;;;;;;;;;5043508;28;20036;-57
2021/12/19 13:19:34;;;;;;;13.05;7.63;;;;;;;;;;5028215;28;20128;-52
2021/12/19 13:21:59;;;;;;;12.98;7.38;;;;;;;;;;5041787;28;20041;-57
2021/12/19 13:24:25;;;;;;;12.20;7.38;;;;;;;;;;5043414;28;20032;-58
2021/12/19 13:27:08;;;;;;;12.75;7.28;;;;;;;;;;5041886;28;20052;-55
2021/12/19 13:29:35;;;;;;;11.88;7.05;;;;;;;;;;5043046;28;20036;-53
2021/12/19 13:32:30;;;;;;;12.20;7.53;;;;;;;;;;5045217;28;20033;-54
2021/12/19 13:34:58;;;;;;;10.90;6.97;;;;;;;;;;5045844;28;20029;-54
2021/12/19 13:37:25;;;;;;;11.75;7.07;;;;;;;;;;5045883;28;20031;-57
2021/12/19 13:40:03;;;;;;;9.10;6.07;;;;;;;;;;5045681;28;20052;-51
2021/12/19 13:42:47;;;;;;;8.25;5.55;;;;;;;;;;5046991;28;20231;-56
2021/12/19 13:45:27;;;;;;;7.55;4.90;;;;;;;;;;5045681;28;20477;-54
2021/12/19 13:47:53;;;;;;;6.30;4.32;;;;;;;;;;5046456;28;20342;-53
2021/12/19 13:50:19;;;;;;;8.27;5.13;;;;;;;;;;5046477;28;20488;-53
2021/12/19 13:52:45;;;;;;;7.32;4.25;;;;;;;;;;5045099;28;20032;-53
2021/12/19 13:55:12;;;;;;;7.03;4.57;;;;;;;;;;5045936;28;20537;-54
2021/12/19 13:57:37;;;;;;;7.78;4.75;;;;;;;;;;5027423;28;20025;-57
2021/12/19 14:00:10;;;;;;;7.38;5.13;;;;;;;;;;5043239;28;20456;-57
2021/12/19 14:02:37;;;;;;;6.25;4.03;;;;;;;;;;5047837;28;20090;-56
2021/12/19 14:05:04;;;;;;;5.97;4.57;;;;;;;;;;5044725;28;20044;-54
2021/12/19 14:07:29;;;;;;;6.28;4.10;;;;;;;;;;5045605;28;20037;-53
2021/12/19 14:10:02;;;;;;;4.45;3.58;;;;;;;;;;5044404;28;20032;-55
2021/12/19 14:12:51;;;;;;;5.28;3.40;;;;;;;;;;5041089;28;20127;-57
2021/12/19 14:15:15;;;;;;;4.95;3.90;;;;;;;;;;5042647;28;21187;-58
2021/12/19 14:17:41;;;;;;;5.68;3.78;;;;;;;;;;5026406;28;20032;-57
2021/12/19 14:20:07;;;;;;;4.75;3.35;;;;;;;;;;5044470;28;20037;-57
2021/12/19 14:22:32;;;;;;;5.68;3.30;;;;;;;;;;5044547;28;20021;-54
2021/12/19 14:24:59;;;;;;;3.83;3.28;;;;;;;;;;5044983;28;20028;-55
2021/12/19 14:27:25;;;;;;;6.95;4.05;;;;;;;;;;5043751;28;20157;-53
2021/12/19 14:30:10;;;;;;;4.78;3.85;;;;;;;;;;5043711;28;20434;-55
2021/12/19 14:32:45;;;;;;;5.45;3.50;;;;;;;;;;5044661;28;20033;-54
2021/12/19 14:35:18;;;;;;;6.35;3.78;;;;;;;;;;5045155;28;20455;-52
2021/12/19 14:37:50;;;;;;;4.80;2.70;;;;;;;;;;5046069;28;20076;-54
2021/12/19 14:40:36;;;;;;;3.90;2.80;;;;;;;;;;2446105;28;10022861;-53
2021/12/19 14:43:07;;;;;;;4.28;3.28;;;;;;;;;;3651522;28;10001768;-52
2021/12/19 14:45:43;;;;;;;4.15;2.95;;;;;;;;;;5042989;28;20044;-53
2021/12/19 14:48:11;;;;;;;3.78;2.78;;;;;;;;;;5045526;28;20021;-53
2021/12/19 14:50:50;;;;;;;4.15;3.13;;;;;;;;;;5047005;28;20443;-54
2021/12/19 14:53:23;;;;;;;4.80;3.13;;;;;;;;;;5045319;28;20036;-53
2021/12/19 14:55:56;;;;;;;4.28;2.72;;;;;;;;;;5045077;28;20032;-54
2021/12/19 14:58:24;;;;;;;3.05;2.58;;;;;;;;;;5044978;28;20036;-55
2021/12/19 15:00:53;;;;;;;3.45;2.50;;;;;;;;;;5045240;28;20035;-56
2021/12/19 15:03:20;;;;;;;3.50;3.10;;;;;;;;;;5025973;28;20064;-54
2021/12/19 15:05:46;;;;;;;5.68;2.35;;;;;;;;;;5025564;28;20032;-55
2021/12/19 15:08:15;;;;;;;3.03;2.40;;;;;;;;;;5045647;28;20119;-52
2021/12/19 15:10:41;;;;;;;3.53;2.60;;;;;;;;;;5044486;28;20032;-55
2021/12/19 15:13:07;;;;;;;4.30;2.75;;;;;;;;;;5045874;28;20047;-51
2021/12/19 15:15:33;;;;;;;4.35;3.15;;;;;;;;;;5042803;28;20025;-54
2021/12/19 15:17:58;;;;;;;3.75;2.70;;;;;;;;;;5046231;28;20048;-55
2021/12/19 15:20:24;;;;;;;2.20;2.00;;;;;;;;;;5045232;28;20025;-55
2021/12/19 15:22:49;;;;;;;3.75;2.33;;;;;;;;;;5043522;28;20070;-58
2021/12/19 15:25:15;;;;;;;3.10;2.50;;;;;;;;;;5044207;28;20041;-54
2021/12/19 15:27:42;;;;;;;3.40;2.30;;;;;;;;;;5044378;28;20107;-52
2021/12/19 15:30:09;;;;;;;2.80;2.30;;;;;;;;;;5045310;28;20029;-52
2021/12/19 15:32:35;;;;;;;3.15;2.55;;;;;;;;;;5044080;28;20044;-58
2021/12/19 15:35:04;;;;;;;3.25;2.38;;;;;;;;;;5044520;28;20043;-53
2021/12/19 15:37:29;;;;;;;2.55;2.33;;;;;;;;;;5045234;28;20047;-52
2021/12/19 15:39:55;;;;;;;3.53;2.80;;;;;;;;;;5043162;28;20025;-53
2021/12/19 15:42:20;;;;;;;2.65;2.35;;;;;;;;;;5042823;28;20063;-58
2021/12/19 15:44:46;;;;;;;3.63;2.42;;;;;;;;;;5044765;28;20037;-57
2021/12/19 15:47:11;;;;;;;3.80;2.65;;;;;;;;;;5043603;28;20025;-53
2021/12/19 15:49:36;;;;;;;3.75;3.20;;;;;;;;;;5044645;28;20112;-53